x

St Georges - 8nm Nw Of Crescent City, Ca (46027) Wave Buoy

2:50am - Sun 7th Feb 2016 All times are PST. -8 hours from GMT.

  • Sig Wave height 6.6ft
  • Swell Direction
  • Peak Period 12s
  • Average Period 9s
  • Wind
    2mph, 4mph gusts
  • Sea Temp 53°f
  • Air Temp 53°f
  • Sea Pressure 1028.9mb
  • St Georges - 8nm Nw Of Crescent City, Ca
  • St Georges - 8nm Nw Of Crescent City, Ca

More Historic Weather Station data

Upgrade to MSW Pro to gain access to the past 30 days of data for over 8000 Wavebouys and Weather Stations around the globe.

Join Pro

Comparision Forecast

View Surf forecast
   
Sun 02/07 2:50am 6.5ft 12s 9s 2 4 mph 1028.9mb 53f 53f
1:50am 6.5ft 12s 9s 4 7 mph 1029.2mb 53f 53f
12:50am 7.5ft 13s 10s 2 4 mph 1029.4mb 53f 53f
Sat 02/06 11:50pm 6ft 13s 9s 7 9 mph 1029.7mb 53f 53f
10:50pm 7.5ft 14s 10s 4
mph
1029.6mb 53f 54f
9:50pm 7ft 13s 9s 4 7 mph 1029.3mb 53f 54f
8:50pm 7.5ft 13s 9s 7 9 mph 1029.3mb 53f 54f
7:50pm 8ft 13s 9s 4 7 mph 1029.7mb 53f 54f
6:50pm 8ft 14s 9s 4 7 mph 1029.8mb 53f 55f
5:50pm 8.5ft 11s 9s 4 7 mph 1029.2mb 53f 55f
4:50pm 8ft 13s 9s 4 7 mph 1029.1mb 53f 55f
3:50pm 9ft 13s 9s  -  2 mph 1028.9mb 53f 55f
2:50pm 9ft 13s 9s 2 9 mph 1028.6mb 53f 54f
1:50pm 10.5ft 12s 9s 9 13 mph 1028.5mb 53f 54f
12:50pm 9.5ft 13s 9s 2 7 mph 1029.3mb 53f 54f
11:50am 10ft 12s 9s 2 4 mph 1030.1mb 53f 53f
10:50am 9ft 12s 9s 2 4 mph 1030.3mb 53f 53f
9:50am 9.5ft 13s 9s 2 7 mph 1029.7mb 53f 53f
8:50am 8ft 14s 9s 4 7 mph 1029.5mb 53f 53f
7:50am 8.5ft 11s 9s 4 7 mph 1029.5mb 53f 53f
6:50am 9ft 13s 10s 7 9 mph 1029.4mb 53f 53f
5:50am 8.5ft 12s 9s 7 9 mph 1029.5mb 53f 53f
4:50am 10ft 14s 10s 9 11 mph 1029.1mb 53f 54f
3:50am 8.5ft 14s 9s 7 9 mph 1029.3mb 53f 52f
2:50am 9ft 15s 9s 7 9 mph 1029.5mb 53f 52f
1:50am 9.5ft 15s 9s 7 11 mph 1030mb 53f 51f
12:50am 9.5ft 15s 9s 11 16 mph 1029.9mb 53f 51f
Fri 02/05 11:50pm 10.5ft 14s 9s 13 16 mph 1029.8mb 53f 52f
10:50pm 12ft 14s 9s 9 13 mph 1030.1mb 53f 52f
9:50pm 12.5ft 14s 9s 11 16 mph 1028.9mb 53f 53f
8:50pm 14ft 14s 9s 20 25 mph 1028.5mb 53f 53f
7:50pm 12.5ft 13s 9s 13 18 mph 1029.3mb 53f 53f
6:50pm 12ft 13s 8s 13 16 mph 1029mb 53f 54f
5:50pm 12ft 14s 9s 16 20 mph 1028.2mb 53f 54f
4:50pm 12ft 14s 9s 18 20 mph 1027.9mb 53f 54f
3:50pm 10.5ft 14s 8s 18 20 mph 1027.3mb 53f 53f
2:50pm 9ft 14s 8s 20 25 mph 1027.1mb 53f 53f
1:50pm 9.5ft 14s 9s 20 25 mph 1027.8mb 53f 53f
12:50pm 10ft 15s 9s 20 25 mph 1028.6mb 53f 52f
11:50am 9.5ft 13s 9s 18 22 mph 1028.9mb 53f 53f
10:50am 9ft 15s 9s 18 22 mph 1028.7mb 53f 52f
9:50am 9ft 15s 9s 16 18 mph 1028.4mb 53f 52f
8:50am 10ft 15s 10s 13 18 mph 1028.2mb 53f 51f
7:50am 10ft 13s 9s 16 18 mph 1027.7mb 53f 51f
6:50am 11ft 16s 10s 16 20 mph 1027.5mb 53f 51f
5:50am 11ft 15s 10s 13 16 mph 1028.2mb 53f 52f
4:50am 10ft 16s 10s 13 18 mph 1028.4mb 53f 52f
3:50am 10ft 14s 10s 11 16 mph 1028mb 53f 52f
2:50am 11.5ft 16s 11s 7 11 mph 1028.3mb 53f 51f
1:50am 12.5ft 16s 11s 11 16 mph 1027.8mb 53f 50f
12:50am 12.5ft 16s 11s 11 16 mph 1028mb 53f 50f
Thu 02/04 11:50pm 14.5ft 15s 11s 9 13 mph 1028.7mb 52f 50f
10:50pm 14ft 16s 12s 7 11 mph 1028.8mb 53f 50f
9:50pm 11.5ft 16s 11s 9 13 mph 1028.7mb 52f 50f
8:50pm 14ft 16s 11s 7 11 mph 1028.9mb 52f 51f
7:50pm 14.5ft 16s 12s 7 9 mph 1029.3mb 52f 51f
6:50pm 14ft 16s 11s 4 7 mph 1029.6mb 53f 51f
5:50pm 13.5ft 16s 11s 2 7 mph 1030mb 53f 52f
4:50pm 13ft 17s 12s 2 7 mph 1030.4mb 53f 52f
3:50pm 14.5ft 17s 12s 2 7 mph 1030.5mb 53f 52f
2:50pm 14ft 17s 12s 2 4 mph 1030.8mb 53f 53f
1:50pm 12.5ft 19s 11s 4 9 mph 1030.9mb 53f 53f
12:50pm 14ft 17s 12s 4 7 mph 1031.2mb 53f 53f
11:50am 15ft 19s 12s 9 13 mph 1031.1mb 52f 52f
10:50am 15.5ft 19s 12s 11 16 mph 1030.8mb 52f 50f
9:50am 13.5ft 17s 11s 9 13 mph 1031.3mb 52f 50f
8:50am 16ft 17s 12s 11 18 mph 1031.1mb 52f 49f
7:50am 13.5ft 17s 11s 9 13 mph 1031.2mb 52f 48f
6:50am 13.5ft 16s 11s 9 13 mph 1031.2mb 52f 48f
5:50am 14ft 19s 12s 7 13 mph 1031.1mb 52f 49f
4:50am 15.5ft 19s 12s 9 13 mph 1031.1mb 52f 49f
3:50am 16ft 19s 12s 9 16 mph 1030.5mb 52f 49f
2:50am 15ft 17s 12s 9 13 mph 1030.3mb 52f 49f
1:50am 16.5ft 19s 13s 9 13 mph 1030.1mb 52f 50f
12:50am 12ft 17s 11s 11 16 mph 1030.2mb 52f 51f
Wed 02/03 11:50pm 10.5ft 19s 10s 13 18 mph 1030mb 52f 51f
10:50pm 10ft 19s 10s 16 18 mph 1029.2mb 53f 51f
9:50pm 9.5ft 19s 9s 13 16 mph 1029mb 53f 51f
8:50pm 9ft 21s 9s 13 16 mph 1028.5mb 53f 51f
7:50pm 10ft 21s 9s 9 13 mph 1027.8mb 53f 51f
6:50pm 8.5ft 21s 8s 9 11 mph 1026.9mb 53f 51f
5:50pm 9ft 9s 7s 9 11 mph 1026.3mb 53f 51f
4:50pm 10ft 8s 7s 13 16 mph 1025.5mb 53f 51f
3:50pm 9.5ft 9s 7s 13 16 mph 1024.7mb 53f 50f
2:50pm 9ft 8s 7s 4 7 mph 1023.6mb 53f 49f
1:50pm 10ft 8s 7s 16 18 mph 1023.9mb 53f 48f
12:50pm 9ft 8s 6s 29 36 mph 1021.5mb 53f 52f
11:50am 7.5ft 8s 6s 25 31 mph 1020.6mb 53f 53f